sensor_id;sensor_type;location;lat;lon;timestamp;P1;durP1;ratioP1;P2;durP2;ratioP2
35993;SDS011;22066;54.274;18.578;2023-05-29T00:01:20;11.05;;;4.65;;
35993;SDS011;22066;54.274;18.578;2023-05-29T00:06:15;9.63;;;3.28;;
35993;SDS011;22066;54.274;18.578;2023-05-29T00:08:41;9.45;;;3.50;;
35993;SDS011;22066;54.274;18.578;2023-05-29T00:11:07;8.77;;;3.45;;
35993;SDS011;22066;54.274;18.578;2023-05-29T00:13:33;10.32;;;3.80;;
35993;SDS011;22066;54.274;18.578;2023-05-29T00:15:59;9.02;;;3.42;;
35993;SDS011;22066;54.274;18.578;2023-05-29T00:18:26;7.82;;;3.58;;
35993;SDS011;22066;54.274;18.578;2023-05-29T00:20:52;8.98;;;3.30;;
35993;SDS011;22066;54.274;18.578;2023-05-29T00:23:18;8.55;;;3.45;;
35993;SDS011;22066;54.274;18.578;2023-05-29T00:25:45;7.82;;;3.40;;
35993;SDS011;22066;54.274;18.578;2023-05-29T00:28:11;8.65;;;3.38;;
35993;SDS011;22066;54.274;18.578;2023-05-29T00:30:37;11.23;;;4.28;;
35993;SDS011;22066;54.274;18.578;2023-05-29T00:33:03;9.02;;;3.70;;
35993;SDS011;22066;54.274;18.578;2023-05-29T00:35:30;7.78;;;3.20;;
35993;SDS011;22066;54.274;18.578;2023-05-29T00:37:57;7.47;;;3.67;;
35993;SDS011;22066;54.274;18.578;2023-05-29T00:40:23;10.65;;;4.22;;
35993;SDS011;22066;54.274;18.578;2023-05-29T00:42:49;8.20;;;3.50;;
35993;SDS011;22066;54.274;18.578;2023-05-29T00:45:15;8.00;;;2.83;;
35993;SDS011;22066;54.274;18.578;2023-05-29T00:47:41;15.30;;;3.53;;
35993;SDS011;22066;54.274;18.578;2023-05-29T00:50:08;11.43;;;3.92;;
35993;SDS011;22066;54.274;18.578;2023-05-29T00:52:36;9.70;;;3.53;;
35993;SDS011;22066;54.274;18.578;2023-05-29T00:55:03;9.95;;;2.70;;
35993;SDS011;22066;54.274;18.578;2023-05-29T00:57:30;8.60;;;3.45;;
35993;SDS011;22066;54.274;18.578;2023-05-29T00:59:56;13.75;;;3.97;;
35993;SDS011;22066;54.274;18.578;2023-05-29T01:02:23;8.77;;;3.78;;
35993;SDS011;22066;54.274;18.578;2023-05-29T01:04:49;9.93;;;3.60;;
35993;SDS011;22066;54.274;18.578;2023-05-29T01:07:19;9.77;;;3.88;;
35993;SDS011;22066;54.274;18.578;2023-05-29T01:09:45;12.95;;;3.90;;
35993;SDS011;22066;54.274;18.578;2023-05-29T01:12:16;11.15;;;3.95;;
35993;SDS011;22066;54.274;18.578;2023-05-29T01:17:14;10.90;;;3.70;;
35993;SDS011;22066;54.274;18.578;2023-05-29T01:28:19;9.48;;;3.53;;
35993;SDS011;22066;54.274;18.578;2023-05-29T01:30:47;8.52;;;3.67;;
35993;SDS011;22066;54.274;18.578;2023-05-29T01:33:13;9.48;;;4.57;;
35993;SDS011;22066;54.274;18.578;2023-05-29T01:35:39;8.32;;;3.50;;
35993;SDS011;22066;54.274;18.578;2023-05-29T01:38:05;7.35;;;3.42;;
35993;SDS011;22066;54.274;18.578;2023-05-29T01:40:31;7.75;;;3.60;;
35993;SDS011;22066;54.274;18.578;2023-05-29T01:42:57;11.18;;;4.13;;
35993;SDS011;22066;54.274;18.578;2023-05-29T01:45:23;10.55;;;3.78;;
35993;SDS011;22066;54.274;18.578;2023-05-29T01:47:49;8.57;;;3.45;;
35993;SDS011;22066;54.274;18.578;2023-05-29T01:50:15;6.40;;;2.90;;
35993;SDS011;22066;54.274;18.578;2023-05-29T01:52:43;9.45;;;3.92;;
35993;SDS011;22066;54.274;18.578;2023-05-29T01:55:09;12.25;;;4.03;;
35993;SDS011;22066;54.274;18.578;2023-05-29T01:57:35;8.45;;;3.60;;
35993;SDS011;22066;54.274;18.578;2023-05-29T02:00:03;7.90;;;3.55;;
35993;SDS011;22066;54.274;18.578;2023-05-29T02:02:40;9.98;;;3.53;;
35993;SDS011;22066;54.274;18.578;2023-05-29T02:05:06;9.65;;;3.55;;
35993;SDS011;22066;54.274;18.578;2023-05-29T02:07:33;9.40;;;3.55;;
35993;SDS011;22066;54.274;18.578;2023-05-29T02:09:59;8.80;;;3.20;;
35993;SDS011;22066;54.274;18.578;2023-05-29T02:12:25;8.20;;;3.20;;
35993;SDS011;22066;54.274;18.578;2023-05-29T02:14:51;8.80;;;3.35;;
35993;SDS011;22066;54.274;18.578;2023-05-29T02:17:17;10.98;;;3.30;;
35993;SDS011;22066;54.274;18.578;2023-05-29T02:19:44;9.52;;;3.35;;
35993;SDS011;22066;54.274;18.578;2023-05-29T02:22:12;11.38;;;3.65;;
35993;SDS011;22066;54.274;18.578;2023-05-29T02:24:38;12.77;;;3.25;;
35993;SDS011;22066;54.274;18.578;2023-05-29T02:27:04;7.00;;;2.95;;
35993;SDS011;22066;54.274;18.578;2023-05-29T02:29:30;9.88;;;3.30;;
35993;SDS011;22066;54.274;18.578;2023-05-29T02:31:56;8.63;;;3.05;;
35993;SDS011;22066;54.274;18.578;2023-05-29T02:34:22;12.57;;;3.58;;
35993;SDS011;22066;54.274;18.578;2023-05-29T02:36:49;12.25;;;3.70;;
35993;SDS011;22066;54.274;18.578;2023-05-29T02:39:17;8.85;;;3.90;;
35993;SDS011;22066;54.274;18.578;2023-05-29T02:41:43;9.68;;;3.28;;
35993;SDS011;22066;54.274;18.578;2023-05-29T02:44:09;6.57;;;3.33;;
35993;SDS011;22066;54.274;18.578;2023-05-29T02:46:35;9.27;;;3.47;;
35993;SDS011;22066;54.274;18.578;2023-05-29T02:49:01;12.02;;;4.53;;
35993;SDS011;22066;54.274;18.578;2023-05-29T02:51:28;10.02;;;3.40;;
35993;SDS011;22066;54.274;18.578;2023-05-29T02:53:55;10.95;;;4.15;;
35993;SDS011;22066;54.274;18.578;2023-05-29T02:56:21;8.70;;;3.70;;
35993;SDS011;22066;54.274;18.578;2023-05-29T02:58:50;10.00;;;3.53;;
35993;SDS011;22066;54.274;18.578;2023-05-29T03:01:16;7.95;;;3.78;;
35993;SDS011;22066;54.274;18.578;2023-05-29T03:03:42;9.32;;;3.42;;
35993;SDS011;22066;54.274;18.578;2023-05-29T03:06:08;11.73;;;4.03;;
35993;SDS011;22066;54.274;18.578;2023-05-29T03:08:37;7.63;;;3.85;;
35993;SDS011;22066;54.274;18.578;2023-05-29T03:11:06;8.82;;;3.35;;
35993;SDS011;22066;54.274;18.578;2023-05-29T03:13:36;10.02;;;3.83;;
35993;SDS011;22066;54.274;18.578;2023-05-29T03:16:02;9.80;;;3.25;;
35993;SDS011;22066;54.274;18.578;2023-05-29T03:18:28;9.95;;;3.70;;
35993;SDS011;22066;54.274;18.578;2023-05-29T03:20:54;11.23;;;3.70;;
35993;SDS011;22066;54.274;18.578;2023-05-29T03:23:20;9.35;;;4.00;;
35993;SDS011;22066;54.274;18.578;2023-05-29T03:25:46;16.08;;;4.45;;
35993;SDS011;22066;54.274;18.578;2023-05-29T03:28:12;9.63;;;4.07;;
35993;SDS011;22066;54.274;18.578;2023-05-29T03:30:38;11.75;;;4.05;;
35993;SDS011;22066;54.274;18.578;2023-05-29T03:33:04;8.75;;;3.65;;
35993;SDS011;22066;54.274;18.578;2023-05-29T03:35:30;6.07;;;3.30;;
35993;SDS011;22066;54.274;18.578;2023-05-29T03:37:56;11.80;;;3.70;;
35993;SDS011;22066;54.274;18.578;2023-05-29T03:40:22;9.48;;;4.03;;
35993;SDS011;22066;54.274;18.578;2023-05-29T03:42:49;7.55;;;3.58;;
35993;SDS011;22066;54.274;18.578;2023-05-29T03:45:15;9.98;;;3.55;;
35993;SDS011;22066;54.274;18.578;2023-05-29T03:47:41;9.43;;;3.17;;
35993;SDS011;22066;54.274;18.578;2023-05-29T03:50:08;11.23;;;3.45;;
35993;SDS011;22066;54.274;18.578;2023-05-29T03:52:34;9.95;;;3.65;;
35993;SDS011;22066;54.274;18.578;2023-05-29T03:55:00;12.68;;;3.88;;
35993;SDS011;22066;54.274;18.578;2023-05-29T03:57:26;10.07;;;4.05;;
35993;SDS011;22066;54.274;18.578;2023-05-29T03:59:52;11.07;;;3.80;;
35993;SDS011;22066;54.274;18.578;2023-05-29T04:02:19;7.28;;;3.42;;
35993;SDS011;22066;54.274;18.578;2023-05-29T04:04:45;12.75;;;4.28;;
35993;SDS011;22066;54.274;18.578;2023-05-29T04:07:11;14.88;;;4.18;;
35993;SDS011;22066;54.274;18.578;2023-05-29T04:09:37;12.85;;;3.95;;
35993;SDS011;22066;54.274;18.578;2023-05-29T04:12:03;14.02;;;3.97;;
35993;SDS011;22066;54.274;18.578;2023-05-29T04:14:30;9.38;;;3.95;;
35993;SDS011;22066;54.274;18.578;2023-05-29T04:16:56;13.40;;;4.30;;
35993;SDS011;22066;54.274;18.578;2023-05-29T04:19:22;10.15;;;3.70;;
35993;SDS011;22066;54.274;18.578;2023-05-29T04:21:48;12.25;;;3.75;;
35993;SDS011;22066;54.274;18.578;2023-05-29T04:24:15;11.73;;;3.63;;
35993;SDS011;22066;54.274;18.578;2023-05-29T04:26:41;10.35;;;3.75;;
35993;SDS011;22066;54.274;18.578;2023-05-29T04:29:08;7.75;;;2.72;;
35993;SDS011;22066;54.274;18.578;2023-05-29T04:31:34;9.77;;;3.78;;
35993;SDS011;22066;54.274;18.578;2023-05-29T04:34:03;11.07;;;3.40;;
35993;SDS011;22066;54.274;18.578;2023-05-29T04:36:32;11.23;;;3.03;;
35993;SDS011;22066;54.274;18.578;2023-05-29T04:39:02;11.02;;;3.55;;
35993;SDS011;22066;54.274;18.578;2023-05-29T04:41:28;10.98;;;2.90;;
35993;SDS011;22066;54.274;18.578;2023-05-29T04:43:56;10.82;;;3.33;;
35993;SDS011;22066;54.274;18.578;2023-05-29T04:46:22;6.63;;;2.92;;
35993;SDS011;22066;54.274;18.578;2023-05-29T04:48:49;7.63;;;2.85;;
35993;SDS011;22066;54.274;18.578;2023-05-29T04:51:18;12.93;;;3.55;;
35993;SDS011;22066;54.274;18.578;2023-05-29T04:53:45;9.48;;;2.80;;
35993;SDS011;22066;54.274;18.578;2023-05-29T04:56:14;12.02;;;3.00;;
35993;SDS011;22066;54.274;18.578;2023-05-29T04:58:41;9.88;;;3.03;;
35993;SDS011;22066;54.274;18.578;2023-05-29T05:01:07;11.02;;;3.78;;
35993;SDS011;22066;54.274;18.578;2023-05-29T05:03:34;10.25;;;2.67;;
35993;SDS011;22066;54.274;18.578;2023-05-29T05:06:01;9.75;;;2.88;;
35993;SDS011;22066;54.274;18.578;2023-05-29T05:08:27;15.40;;;4.93;;
35993;SDS011;22066;54.274;18.578;2023-05-29T05:10:54;12.48;;;2.95;;
35993;SDS011;22066;54.274;18.578;2023-05-29T05:13:20;10.45;;;3.45;;
35993;SDS011;22066;54.274;18.578;2023-05-29T05:15:46;14.60;;;3.88;;
35993;SDS011;22066;54.274;18.578;2023-05-29T05:18:12;13.13;;;2.78;;
35993;SDS011;22066;54.274;18.578;2023-05-29T05:20:38;13.75;;;2.90;;
35993;SDS011;22066;54.274;18.578;2023-05-29T05:23:05;10.30;;;3.45;;
35993;SDS011;22066;54.274;18.578;2023-05-29T05:25:31;8.73;;;2.55;;
35993;SDS011;22066;54.274;18.578;2023-05-29T05:30:25;8.52;;;2.40;;
35993;SDS011;22066;54.274;18.578;2023-05-29T05:32:51;7.50;;;2.90;;
35993;SDS011;22066;54.274;18.578;2023-05-29T05:35:17;7.40;;;2.40;;
35993;SDS011;22066;54.274;18.578;2023-05-29T05:37:44;7.97;;;2.03;;
35993;SDS011;22066;54.274;18.578;2023-05-29T05:40:10;10.80;;;2.05;;
35993;SDS011;22066;54.274;18.578;2023-05-29T05:42:36;14.07;;;2.95;;
35993;SDS011;22066;54.274;18.578;2023-05-29T05:45:02;9.38;;;2.40;;
35993;SDS011;22066;54.274;18.578;2023-05-29T05:47:28;8.23;;;1.90;;
35993;SDS011;22066;54.274;18.578;2023-05-29T05:49:55;10.88;;;2.78;;
35993;SDS011;22066;54.274;18.578;2023-05-29T05:52:21;11.98;;;2.45;;
35993;SDS011;22066;54.274;18.578;2023-05-29T05:54:48;8.82;;;2.08;;
35993;SDS011;22066;54.274;18.578;2023-05-29T05:57:14;9.02;;;2.72;;
35993;SDS011;22066;54.274;18.578;2023-05-29T05:59:40;14.38;;;2.53;;
35993;SDS011;22066;54.274;18.578;2023-05-29T06:02:06;9.82;;;2.88;;
35993;SDS011;22066;54.274;18.578;2023-05-29T06:04:32;5.40;;;2.33;;
35993;SDS011;22066;54.274;18.578;2023-05-29T06:06:58;10.75;;;2.45;;
35993;SDS011;22066;54.274;18.578;2023-05-29T06:09:25;11.13;;;2.28;;
35993;SDS011;22066;54.274;18.578;2023-05-29T06:11:51;9.65;;;2.15;;
35993;SDS011;22066;54.274;18.578;2023-05-29T06:14:17;7.78;;;2.30;;
35993;SDS011;22066;54.274;18.578;2023-05-29T06:16:43;8.43;;;2.30;;
35993;SDS011;22066;54.274;18.578;2023-05-29T06:19:09;12.82;;;3.63;;
35993;SDS011;22066;54.274;18.578;2023-05-29T06:21:36;10.15;;;2.17;;
35993;SDS011;22066;54.274;18.578;2023-05-29T06:24:02;10.05;;;2.75;;
35993;SDS011;22066;54.274;18.578;2023-05-29T06:26:29;5.47;;;2.50;;
35993;SDS011;22066;54.274;18.578;2023-05-29T06:28:55;8.80;;;2.40;;
35993;SDS011;22066;54.274;18.578;2023-05-29T06:31:21;8.65;;;1.83;;
35993;SDS011;22066;54.274;18.578;2023-05-29T06:33:47;8.25;;;2.17;;
35993;SDS011;22066;54.274;18.578;2023-05-29T06:36:13;8.50;;;1.75;;
35993;SDS011;22066;54.274;18.578;2023-05-29T06:38:39;8.27;;;2.58;;
35993;SDS011;22066;54.274;18.578;2023-05-29T06:41:05;8.48;;;3.22;;
35993;SDS011;22066;54.274;18.578;2023-05-29T06:43:31;8.23;;;2.00;;
35993;SDS011;22066;54.274;18.578;2023-05-29T06:45:57;7.90;;;2.03;;
35993;SDS011;22066;54.274;18.578;2023-05-29T06:48:23;6.38;;;2.05;;
35993;SDS011;22066;54.274;18.578;2023-05-29T06:50:49;5.78;;;2.00;;
35993;SDS011;22066;54.274;18.578;2023-05-29T06:53:15;20.25;;;3.90;;
35993;SDS011;22066;54.274;18.578;2023-05-29T06:55:41;10.15;;;2.17;;
35993;SDS011;22066;54.274;18.578;2023-05-29T06:58:07;11.10;;;2.60;;
35993;SDS011;22066;54.274;18.578;2023-05-29T07:00:33;6.60;;;2.15;;
35993;SDS011;22066;54.274;18.578;2023-05-29T07:02:59;10.50;;;2.10;;
35993;SDS011;22066;54.274;18.578;2023-05-29T07:05:28;7.22;;;1.83;;
35993;SDS011;22066;54.274;18.578;2023-05-29T07:07:54;9.65;;;2.63;;
35993;SDS011;22066;54.274;18.578;2023-05-29T07:10:21;7.68;;;2.03;;
35993;SDS011;22066;54.274;18.578;2023-05-29T07:12:47;7.50;;;2.00;;
35993;SDS011;22066;54.274;18.578;2023-05-29T07:15:13;8.38;;;2.38;;
35993;SDS011;22066;54.274;18.578;2023-05-29T07:17:39;9.48;;;3.17;;
35993;SDS011;22066;54.274;18.578;2023-05-29T07:20:05;9.82;;;2.25;;
35993;SDS011;22066;54.274;18.578;2023-05-29T07:22:33;8.20;;;2.10;;
35993;SDS011;22066;54.274;18.578;2023-05-29T07:24:59;9.43;;;2.28;;
35993;SDS011;22066;54.274;18.578;2023-05-29T07:27:25;7.70;;;2.08;;
35993;SDS011;22066;54.274;18.578;2023-05-29T07:29:51;9.70;;;1.90;;
35993;SDS011;22066;54.274;18.578;2023-05-29T07:32:17;5.90;;;1.75;;
35993;SDS011;22066;54.274;18.578;2023-05-29T07:34:43;11.32;;;2.55;;
35993;SDS011;22066;54.274;18.578;2023-05-29T07:37:10;5.30;;;1.83;;
35993;SDS011;22066;54.274;18.578;2023-05-29T07:39:37;8.07;;;2.50;;
35993;SDS011;22066;54.274;18.578;2023-05-29T07:42:03;8.40;;;2.53;;
35993;SDS011;22066;54.274;18.578;2023-05-29T07:44:30;8.80;;;2.05;;
35993;SDS011;22066;54.274;18.578;2023-05-29T07:46:56;6.80;;;2.28;;
35993;SDS011;22066;54.274;18.578;2023-05-29T07:49:22;6.18;;;2.00;;
35993;SDS011;22066;54.274;18.578;2023-05-29T07:51:49;5.57;;;1.58;;
35993;SDS011;22066;54.274;18.578;2023-05-29T07:54:15;10.88;;;2.30;;
35993;SDS011;22066;54.274;18.578;2023-05-29T07:56:43;6.32;;;2.40;;
35993;SDS011;22066;54.274;18.578;2023-05-29T07:59:09;5.35;;;1.98;;
35993;SDS011;22066;54.274;18.578;2023-05-29T08:01:36;6.15;;;2.40;;
35993;SDS011;22066;54.274;18.578;2023-05-29T08:04:04;4.93;;;1.42;;
35993;SDS011;22066;54.274;18.578;2023-05-29T08:06:30;16.85;;;2.20;;
35993;SDS011;22066;54.274;18.578;2023-05-29T08:08:59;5.63;;;2.38;;
35993;SDS011;22066;54.274;18.578;2023-05-29T08:11:25;16.88;;;2.53;;
35993;SDS011;22066;54.274;18.578;2023-05-29T08:13:51;8.32;;;2.10;;
35993;SDS011;22066;54.274;18.578;2023-05-29T08:16:17;5.82;;;1.90;;
35993;SDS011;22066;54.274;18.578;2023-05-29T08:18:43;8.15;;;2.67;;
35993;SDS011;22066;54.274;18.578;2023-05-29T08:21:09;11.60;;;2.38;;
35993;SDS011;22066;54.274;18.578;2023-05-29T08:23:36;5.95;;;2.03;;
35993;SDS011;22066;54.274;18.578;2023-05-29T08:26:02;7.88;;;1.67;;
35993;SDS011;22066;54.274;18.578;2023-05-29T08:28:28;8.60;;;1.70;;
35993;SDS011;22066;54.274;18.578;2023-05-29T08:30:54;5.18;;;1.80;;
35993;SDS011;22066;54.274;18.578;2023-05-29T08:33:21;5.57;;;1.50;;
35993;SDS011;22066;54.274;18.578;2023-05-29T08:35:47;4.03;;;1.35;;
35993;SDS011;22066;54.274;18.578;2023-05-29T08:38:13;6.72;;;2.05;;
35993;SDS011;22066;54.274;18.578;2023-05-29T08:40:39;4.25;;;1.52;;
35993;SDS011;22066;54.274;18.578;2023-05-29T08:45:31;7.00;;;1.80;;
35993;SDS011;22066;54.274;18.578;2023-05-29T08:48:00;5.15;;;1.63;;
35993;SDS011;22066;54.274;18.578;2023-05-29T08:50:26;9.57;;;2.22;;
35993;SDS011;22066;54.274;18.578;2023-05-29T08:52:52;10.70;;;2.25;;
35993;SDS011;22066;54.274;18.578;2023-05-29T08:55:18;5.75;;;1.65;;
35993;SDS011;22066;54.274;18.578;2023-05-29T08:57:44;9.13;;;1.90;;
35993;SDS011;22066;54.274;18.578;2023-05-29T09:00:11;8.23;;;2.28;;
35993;SDS011;22066;54.274;18.578;2023-05-29T09:02:40;6.63;;;2.00;;
35993;SDS011;22066;54.274;18.578;2023-05-29T09:05:08;6.03;;;2.28;;
35993;SDS011;22066;54.274;18.578;2023-05-29T09:07:35;6.93;;;2.03;;
35993;SDS011;22066;54.274;18.578;2023-05-29T09:10:04;7.22;;;1.75;;
35993;SDS011;22066;54.274;18.578;2023-05-29T09:12:31;8.27;;;2.35;;
35993;SDS011;22066;54.274;18.578;2023-05-29T09:14:57;7.00;;;1.80;;
35993;SDS011;22066;54.274;18.578;2023-05-29T09:17:23;5.60;;;2.35;;
35993;SDS011;22066;54.274;18.578;2023-05-29T09:19:49;4.45;;;2.08;;
35993;SDS011;22066;54.274;18.578;2023-05-29T09:22:15;5.20;;;1.77;;
35993;SDS011;22066;54.274;18.578;2023-05-29T09:24:42;4.95;;;1.55;;
35993;SDS011;22066;54.274;18.578;2023-05-29T09:27:09;7.65;;;2.17;;
35993;SDS011;22066;54.274;18.578;2023-05-29T09:29:38;5.60;;;1.63;;
35993;SDS011;22066;54.274;18.578;2023-05-29T09:32:09;5.32;;;1.85;;
35993;SDS011;22066;54.274;18.578;2023-05-29T09:34:35;5.22;;;1.98;;
35993;SDS011;22066;54.274;18.578;2023-05-29T09:37:02;5.05;;;2.00;;
35993;SDS011;22066;54.274;18.578;2023-05-29T09:39:33;5.53;;;1.80;;
35993;SDS011;22066;54.274;18.578;2023-05-29T09:41:59;6.95;;;1.58;;
35993;SDS011;22066;54.274;18.578;2023-05-29T09:44:26;6.25;;;1.85;;
35993;SDS011;22066;54.274;18.578;2023-05-29T09:46:57;9.70;;;2.10;;
35993;SDS011;22066;54.274;18.578;2023-05-29T09:49:23;7.72;;;1.85;;
35993;SDS011;22066;54.274;18.578;2023-05-29T09:51:51;7.35;;;1.80;;
35993;SDS011;22066;54.274;18.578;2023-05-29T09:54:18;6.45;;;2.50;;
35993;SDS011;22066;54.274;18.578;2023-05-29T09:56:45;6.43;;;2.00;;
35993;SDS011;22066;54.274;18.578;2023-05-29T09:59:13;6.60;;;1.60;;
35993;SDS011;22066;54.274;18.578;2023-05-29T10:04:05;5.38;;;1.88;;
35993;SDS011;22066;54.274;18.578;2023-05-29T10:06:31;3.72;;;1.65;;
35993;SDS011;22066;54.274;18.578;2023-05-29T10:08:58;5.18;;;1.77;;
35993;SDS011;22066;54.274;18.578;2023-05-29T10:11:25;4.90;;;1.80;;
35993;SDS011;22066;54.274;18.578;2023-05-29T10:13:52;8.63;;;2.13;;
35993;SDS011;22066;54.274;18.578;2023-05-29T10:18:56;8.45;;;2.25;;
35993;SDS011;22066;54.274;18.578;2023-05-29T10:21:26;4.87;;;2.33;;
35993;SDS011;22066;54.274;18.578;2023-05-29T10:23:52;5.35;;;1.83;;
35993;SDS011;22066;54.274;18.578;2023-05-29T10:26:21;8.15;;;2.50;;
35993;SDS011;22066;54.274;18.578;2023-05-29T10:31:22;5.40;;;1.67;;
35993;SDS011;22066;54.274;18.578;2023-05-29T10:36:19;5.70;;;1.95;;
35993;SDS011;22066;54.274;18.578;2023-05-29T10:38:47;5.07;;;1.48;;
35993;SDS011;22066;54.274;18.578;2023-05-29T10:43:54;7.13;;;1.83;;
35993;SDS011;22066;54.274;18.578;2023-05-29T10:46:20;8.95;;;1.42;;
35993;SDS011;22066;54.274;18.578;2023-05-29T10:48:49;7.95;;;2.10;;
35993;SDS011;22066;54.274;18.578;2023-05-29T10:51:25;12.80;;;2.97;;
35993;SDS011;22066;54.274;18.578;2023-05-29T10:53:51;12.20;;;2.55;;
35993;SDS011;22066;54.274;18.578;2023-05-29T10:56:21;6.88;;;1.90;;
35993;SDS011;22066;54.274;18.578;2023-05-29T10:58:52;13.15;;;2.10;;
35993;SDS011;22066;54.274;18.578;2023-05-29T11:01:22;7.85;;;2.13;;
35993;SDS011;22066;54.274;18.578;2023-05-29T11:03:50;9.68;;;2.25;;
35993;SDS011;22066;54.274;18.578;2023-05-29T11:06:21;7.07;;;2.03;;
35993;SDS011;22066;54.274;18.578;2023-05-29T11:08:54;8.75;;;1.90;;
35993;SDS011;22066;54.274;18.578;2023-05-29T11:13:56;9.52;;;2.65;;
35993;SDS011;22066;54.274;18.578;2023-05-29T11:18:54;6.13;;;1.63;;
35993;SDS011;22066;54.274;18.578;2023-05-29T11:21:30;11.48;;;2.85;;
35993;SDS011;22066;54.274;18.578;2023-05-29T11:23:58;8.43;;;1.70;;
35993;SDS011;22066;54.274;18.578;2023-05-29T11:26:26;10.15;;;2.03;;
35993;SDS011;22066;54.274;18.578;2023-05-29T11:28:52;12.60;;;3.08;;
35993;SDS011;22066;54.274;18.578;2023-05-29T11:31:19;10.07;;;2.38;;
35993;SDS011;22066;54.274;18.578;2023-05-29T11:33:48;7.50;;;1.80;;
35993;SDS011;22066;54.274;18.578;2023-05-29T11:38:41;8.23;;;2.03;;
35993;SDS011;22066;54.274;18.578;2023-05-29T11:41:07;6.40;;;1.63;;
35993;SDS011;22066;54.274;18.578;2023-05-29T11:43:34;11.20;;;1.83;;
35993;SDS011;22066;54.274;18.578;2023-05-29T11:46:01;9.38;;;2.22;;
35993;SDS011;22066;54.274;18.578;2023-05-29T11:48:27;9.30;;;1.88;;
35993;SDS011;22066;54.274;18.578;2023-05-29T11:50:53;12.00;;;2.15;;
35993;SDS011;22066;54.274;18.578;2023-05-29T11:53:19;11.80;;;2.60;;
35993;SDS011;22066;54.274;18.578;2023-05-29T11:55:46;12.95;;;3.08;;
35993;SDS011;22066;54.274;18.578;2023-05-29T11:58:12;8.77;;;2.20;;
35993;SDS011;22066;54.274;18.578;2023-05-29T12:00:38;8.85;;;2.10;;
35993;SDS011;22066;54.274;18.578;2023-05-29T12:03:05;9.10;;;1.70;;
35993;SDS011;22066;54.274;18.578;2023-05-29T12:05:32;9.50;;;2.00;;
35993;SDS011;22066;54.274;18.578;2023-05-29T12:07:59;9.03;;;2.20;;
35993;SDS011;22066;54.274;18.578;2023-05-29T12:10:26;14.45;;;1.63;;
35993;SDS011;22066;54.274;18.578;2023-05-29T12:12:57;11.75;;;2.17;;
35993;SDS011;22066;54.274;18.578;2023-05-29T12:15:23;12.75;;;2.42;;
35993;SDS011;22066;54.274;18.578;2023-05-29T12:17:50;8.70;;;2.17;;
35993;SDS011;22066;54.274;18.578;2023-05-29T12:20:17;6.68;;;2.40;;
35993;SDS011;22066;54.274;18.578;2023-05-29T12:22:43;9.00;;;1.70;;
35993;SDS011;22066;54.274;18.578;2023-05-29T12:25:13;9.07;;;1.80;;
35993;SDS011;22066;54.274;18.578;2023-05-29T12:27:41;8.95;;;1.40;;
35993;SDS011;22066;54.274;18.578;2023-05-29T12:30:11;9.75;;;1.67;;
35993;SDS011;22066;54.274;18.578;2023-05-29T12:32:42;18.13;;;2.95;;
35993;SDS011;22066;54.274;18.578;2023-05-29T12:37:44;11.55;;;1.88;;
35993;SDS011;22066;54.274;18.578;2023-05-29T12:40:15;10.07;;;1.80;;
35993;SDS011;22066;54.274;18.578;2023-05-29T12:42:41;5.80;;;1.70;;
35993;SDS011;22066;54.274;18.578;2023-05-29T12:45:07;8.30;;;1.85;;
35993;SDS011;22066;54.274;18.578;2023-05-29T12:47:34;12.13;;;2.37;;
35993;SDS011;22066;54.274;18.578;2023-05-29T12:52:46;11.15;;;2.10;;
35993;SDS011;22066;54.274;18.578;2023-05-29T12:55:12;6.68;;;1.48;;
35993;SDS011;22066;54.274;18.578;2023-05-29T12:57:38;9.60;;;1.85;;
35993;SDS011;22066;54.274;18.578;2023-05-29T13:00:05;8.55;;;1.83;;
35993;SDS011;22066;54.274;18.578;2023-05-29T13:04:59;8.52;;;1.88;;
35993;SDS011;22066;54.274;18.578;2023-05-29T13:07:25;6.65;;;1.27;;
35993;SDS011;22066;54.274;18.578;2023-05-29T13:09:53;9.13;;;2.03;;
35993;SDS011;22066;54.274;18.578;2023-05-29T13:12:19;7.97;;;1.63;;
35993;SDS011;22066;54.274;18.578;2023-05-29T13:14:45;10.63;;;1.75;;
35993;SDS011;22066;54.274;18.578;2023-05-29T13:17:11;15.38;;;1.90;;
35993;SDS011;22066;54.274;18.578;2023-05-29T13:19:37;8.95;;;2.30;;
35993;SDS011;22066;54.274;18.578;2023-05-29T13:22:03;9.95;;;2.05;;
35993;SDS011;22066;54.274;18.578;2023-05-29T13:24:29;7.22;;;2.20;;
35993;SDS011;22066;54.274;18.578;2023-05-29T13:26:55;7.38;;;1.50;;
35993;SDS011;22066;54.274;18.578;2023-05-29T13:29:21;9.98;;;2.13;;
35993;SDS011;22066;54.274;18.578;2023-05-29T13:31:47;11.13;;;2.30;;
35993;SDS011;22066;54.274;18.578;2023-05-29T13:34:13;11.38;;;1.90;;
35993;SDS011;22066;54.274;18.578;2023-05-29T13:36:39;11.27;;;2.95;;
35993;SDS011;22066;54.274;18.578;2023-05-29T13:39:05;12.60;;;2.22;;
35993;SDS011;22066;54.274;18.578;2023-05-29T13:41:31;14.82;;;2.55;;
35993;SDS011;22066;54.274;18.578;2023-05-29T13:43:57;8.68;;;2.20;;
35993;SDS011;22066;54.274;18.578;2023-05-29T13:46:23;13.35;;;2.33;;
35993;SDS011;22066;54.274;18.578;2023-05-29T13:51:17;10.60;;;2.63;;
35993;SDS011;22066;54.274;18.578;2023-05-29T13:53:44;9.75;;;2.03;;
35993;SDS011;22066;54.274;18.578;2023-05-29T13:56:10;11.88;;;2.40;;
35993;SDS011;22066;54.274;18.578;2023-05-29T13:58:36;13.77;;;2.38;;
35993;SDS011;22066;54.274;18.578;2023-05-29T14:01:02;7.68;;;2.15;;
35993;SDS011;22066;54.274;18.578;2023-05-29T14:03:28;13.45;;;2.70;;
35993;SDS011;22066;54.274;18.578;2023-05-29T14:05:54;8.52;;;1.83;;
35993;SDS011;22066;54.274;18.578;2023-05-29T14:08:20;9.30;;;1.65;;
35993;SDS011;22066;54.274;18.578;2023-05-29T14:10:46;10.82;;;1.75;;
35993;SDS011;22066;54.274;18.578;2023-05-29T14:13:13;12.77;;;1.65;;
35993;SDS011;22066;54.274;18.578;2023-05-29T14:15:39;9.85;;;1.48;;
35993;SDS011;22066;54.274;18.578;2023-05-29T14:18:05;10.68;;;1.95;;
35993;SDS011;22066;54.274;18.578;2023-05-29T14:20:33;12.73;;;2.53;;
35993;SDS011;22066;54.274;18.578;2023-05-29T14:22:59;10.50;;;1.75;;
35993;SDS011;22066;54.274;18.578;2023-05-29T14:25:25;7.20;;;2.13;;
35993;SDS011;22066;54.274;18.578;2023-05-29T14:27:51;9.38;;;2.47;;
35993;SDS011;22066;54.274;18.578;2023-05-29T14:30:17;10.38;;;2.22;;
35993;SDS011;22066;54.274;18.578;2023-05-29T14:32:43;12.88;;;2.60;;
35993;SDS011;22066;54.274;18.578;2023-05-29T14:35:09;9.68;;;2.20;;
35993;SDS011;22066;54.274;18.578;2023-05-29T14:37:36;9.27;;;1.73;;
35993;SDS011;22066;54.274;18.578;2023-05-29T14:40:02;11.98;;;2.33;;
35993;SDS011;22066;54.274;18.578;2023-05-29T14:42:28;18.55;;;4.13;;
35993;SDS011;22066;54.274;18.578;2023-05-29T14:44:54;11.02;;;2.72;;
35993;SDS011;22066;54.274;18.578;2023-05-29T14:47:20;15.30;;;3.17;;
35993;SDS011;22066;54.274;18.578;2023-05-29T14:49:46;14.63;;;2.63;;
35993;SDS011;22066;54.274;18.578;2023-05-29T14:52:12;21.50;;;3.13;;
35993;SDS011;22066;54.274;18.578;2023-05-29T14:54:38;13.68;;;2.85;;
35993;SDS011;22066;54.274;18.578;2023-05-29T14:57:05;10.35;;;2.72;;
35993;SDS011;22066;54.274;18.578;2023-05-29T14:59:31;9.52;;;3.13;;
35993;SDS011;22066;54.274;18.578;2023-05-29T15:01:57;13.48;;;2.63;;
35993;SDS011;22066;54.274;18.578;2023-05-29T15:04:25;16.20;;;3.22;;
35993;SDS011;22066;54.274;18.578;2023-05-29T15:06:51;15.32;;;3.35;;
35993;SDS011;22066;54.274;18.578;2023-05-29T15:09:19;6.88;;;2.80;;
35993;SDS011;22066;54.274;18.578;2023-05-29T15:11:46;14.23;;;2.10;;
35993;SDS011;22066;54.274;18.578;2023-05-29T15:14:12;12.30;;;2.22;;
35993;SDS011;22066;54.274;18.578;2023-05-29T15:16:39;8.98;;;2.50;;